San Francisco, California
Traffic Map
Current Weather Conditions
San Francisco, California
Broken Clouds
Broken Clouds
57°
Feels Like: 57°
Wind Chill: 57° Ceiling: 18000
Heat Index: 57° Visibility: 10mi
Dew Point: 52° Wind: 3mph
Humidity: 83% Direction: 140° (SE)
Pressure: 30.17in Gusts: 0mph
Raw Report DataKSFO 190656Z 14003KT 10SM SCT024 SCT100 BKN180 14/11 A3017 RMK AO2 SLP217 T01390111
Traffic Incident Summary
Active as of:
Severity:
Category:
InformationThere was an issue retrieving the traffic information for this location. Please try a different location or try again shortly.
Advertisements
Track Severe Weather on mobile